Time;durP1;ratioP1;P1;durP2;ratioP2;P2;SDS_P1;SDS_P2;PMS_P1;PMS_P2;Temp;Humidity;BMP_temperature;BMP_pressure;BME280_temperature;BME280_humidity;BME280_pressure;Samples;Min_cycle;Max_cycle;Signal;HPM_P1;HPM_P2
2023/01/02 00:00:56;;;;;;;15.70;7.68;;;;;;;10.37;100.00;100829.06;5093754;28;20076;-77
2023/01/02 00:03:22;;;;;;;16.40;8.07;;;;;;;10.36;100.00;100835.25;5093966;28;20058;-77
2023/01/02 00:05:48;;;;;;;15.65;8.45;;;;;;;10.34;100.00;100835.72;5093345;28;20040;-78
2023/01/02 00:08:17;;;;;;;14.68;7.53;;;;;;;10.39;100.00;100828.56;5092658;28;20056;-77
2023/01/02 00:10:43;;;;;;;14.10;7.85;;;;;;;10.33;100.00;100830.50;5092065;28;20381;-78
2023/01/02 00:13:11;;;;;;;14.73;7.93;;;;;;;10.29;100.00;100832.72;5091771;28;20035;-78
2023/01/02 00:15:37;;;;;;;11.88;7.20;;;;;;;10.32;100.00;100828.91;5092387;28;20016;-78
2023/01/02 00:18:02;;;;;;;13.15;7.72;;;;;;;10.27;100.00;100829.56;5091118;28;20481;-77
2023/01/02 00:20:28;;;;;;;12.68;7.25;;;;;;;10.23;100.00;100831.78;5092401;28;20024;-77
2023/01/02 00:23:02;;;;;;;15.80;7.70;;;;;;;10.33;100.00;100839.06;5092353;28;20042;-78
2023/01/02 00:25:28;;;;;;;12.88;7.55;;;;;;;10.33;100.00;100827.66;5091150;28;20119;-78
2023/01/02 00:27:55;;;;;;;13.90;7.53;;;;;;;10.34;100.00;100834.91;5092281;28;20043;-78
2023/01/02 00:30:23;;;;;;;17.13;7.43;;;;;;;10.37;100.00;100831.13;5091266;28;20036;-78
2023/01/02 00:32:49;;;;;;;16.70;9.02;;;;;;;10.34;100.00;100835.72;5092247;28;20024;-79
2023/01/02 00:35:14;;;;;;;12.60;7.15;;;;;;;10.33;100.00;100831.31;5092378;28;20030;-79
2023/01/02 00:37:40;;;;;;;12.13;7.55;;;;;;;10.30;100.00;100825.72;5092325;28;20030;-78
2023/01/02 00:40:12;;;;;;;11.52;6.88;;;;;;;10.31;100.00;100821.59;5090947;28;20024;-80
2023/01/02 00:42:41;;;;;;;11.55;5.90;;;;;;;10.35;100.00;100825.09;5094520;28;20466;-78
2023/01/02 00:45:09;;;;;;;11.73;6.43;;;;;;;10.36;100.00;100820.97;5095958;28;20036;-79
2023/01/02 00:47:36;;;;;;;10.63;6.60;;;;;;;10.36;100.00;100816.06;5096013;28;20036;-78
2023/01/02 00:50:11;;;;;;;12.23;6.47;;;;;;;10.39;100.00;100820.78;5095851;28;20030;-78
2023/01/02 00:52:36;;;;;;;11.32;7.38;;;;;;;10.43;100.00;100820.66;5097222;28;20426;-76
2023/01/02 00:55:03;;;;;;;14.73;6.50;;;;;;;10.44;100.00;100816.50;5096850;28;20461;-77
2023/01/02 00:57:28;;;;;;;14.25;6.88;;;;;;;10.45;100.00;100804.59;5097350;28;20069;-77
2023/01/02 00:59:55;;;;;;;11.60;8.05;;;;;;;10.46;100.00;100811.91;5078723;28;20016;-77
2023/01/02 01:02:20;;;;;;;13.30;6.80;;;;;;;10.43;100.00;100804.28;5096949;28;20020;-75
2023/01/02 01:04:48;;;;;;;9.45;6.35;;;;;;;10.49;100.00;100807.28;5096576;28;20039;-77
2023/01/02 01:07:15;;;;;;;13.23;6.82;;;;;;;10.48;100.00;100805.72;5096861;28;20028;-76
2023/01/02 01:09:40;;;;;;;10.13;6.60;;;;;;;10.51;100.00;100819.81;5062008;28;20024;-76
2023/01/02 01:12:06;;;;;;;11.25;6.93;;;;;;;10.51;100.00;100816.19;5078443;28;20028;-76
2023/01/02 01:14:32;;;;;;;11.57;6.38;;;;;;;10.56;100.00;100821.25;5095855;28;20024;-77
2023/01/02 01:16:59;;;;;;;10.55;6.57;;;;;;;10.57;100.00;100819.19;5096933;28;20115;-77
2023/01/02 01:19:35;;;;;;;10.93;6.60;;;;;;;10.55;100.00;100817.59;5096998;28;20047;-76
2023/01/02 01:22:01;;;;;;;9.13;5.57;;;;;;;10.50;100.00;100809.66;5095397;28;20372;-76
2023/01/02 01:24:28;;;;;;;13.02;6.30;;;;;;;10.47;100.00;100815.56;5096412;28;20028;-76
2023/01/02 01:26:53;;;;;;;13.07;6.30;;;;;;;10.46;100.00;100809.03;5096773;28;20023;-76
2023/01/02 01:29:19;;;;;;;16.25;5.95;;;;;;;10.42;100.00;100799.06;5094452;28;20036;-76
2023/01/02 01:31:45;;;;;;;12.07;6.25;;;;;;;10.33;100.00;100794.16;5096625;28;20093;-75
2023/01/02 01:34:11;;;;;;;12.30;6.65;;;;;;;10.29;100.00;100795.56;5096508;28;20028;-75
2023/01/02 01:36:37;;;;;;;11.32;6.82;;;;;;;10.24;100.00;100790.50;5095302;28;20072;-76
2023/01/02 01:39:02;;;;;;;14.65;7.18;;;;;;;10.20;100.00;100784.19;5096349;28;20016;-75
2023/01/02 01:41:28;;;;;;;15.23;7.75;;;;;;;10.15;100.00;100785.59;5096880;28;20028;-79
2023/01/02 01:43:56;;;;;;;14.70;7.60;;;;;;;10.10;100.00;100789.09;5096041;28;20047;-77
2023/01/02 01:46:31;;;;;;;17.17;8.25;;;;;;;10.05;100.00;100781.19;5095142;28;20050;-77
2023/01/02 01:49:23;;;;;;;14.75;7.65;;;;;;;10.01;100.00;100778.50;5096199;28;20031;-77
2023/01/02 01:52:05;;;;;;;17.63;8.23;;;;;;;9.94;100.00;100784.50;5096892;28;20020;-77
2023/01/02 01:54:52;;;;;;;24.00;8.65;;;;;;;9.87;100.00;100773.44;5096174;28;20027;-76
2023/01/02 01:57:29;;;;;;;16.85;8.52;;;;;;;9.80;100.00;100773.75;5105019;28;20024;-77
2023/01/02 01:59:55;;;;;;;18.98;8.63;;;;;;;9.74;100.00;100777.72;5101830;28;20035;-76
2023/01/02 02:02:40;;;;;;;18.58;8.02;;;;;;;9.65;100.00;100775.63;5099083;28;20032;-78
2023/01/02 02:05:06;;;;;;;18.27;9.07;;;;;;;9.67;100.00;100773.09;5096517;28;20028;-77
2023/01/02 02:07:34;;;;;;;16.83;8.50;;;;;;;9.66;100.00;100782.91;5093422;28;20476;-76
2023/01/02 02:10:07;;;;;;;14.32;8.45;;;;;;;9.66;100.00;100786.56;5093605;28;20016;-77
2023/01/02 02:12:33;;;;;;;25.73;10.75;;;;;;;9.66;100.00;100780.06;5093316;28;20046;-77
2023/01/02 02:15:08;;;;;;;22.88;8.63;;;;;;;9.65;100.00;100775.63;5094486;28;20032;-76
2023/01/02 02:17:40;;;;;;;15.20;8.60;;;;;;;9.63;100.00;100764.69;5094589;28;20027;-77
2023/01/02 02:20:28;;;;;;;16.83;8.57;;;;;;;9.58;100.00;100761.69;5094533;28;20034;-76
2023/01/02 02:23:23;;;;;;;15.57;9.10;;;;;;;9.55;100.00;100757.69;5094170;28;20040;-77
2023/01/02 02:25:57;;;;;;;17.42;9.13;;;;;;;9.51;100.00;100742.00;5110141;28;20020;-76
2023/01/02 02:28:51;;;;;;;15.05;8.80;;;;;;;9.46;100.00;100746.28;5095350;28;20111;-77
2023/01/02 02:31:35;;;;;;;17.17;9.15;;;;;;;9.41;100.00;100761.19;5095738;28;20028;-76
2023/01/02 02:34:19;;;;;;;22.77;9.52;;;;;;;9.35;100.00;100754.50;5092985;28;20425;-78
2023/01/02 02:36:50;;;;;;;19.58;9.35;;;;;;;9.40;100.00;100761.66;5093020;28;20054;-78
2023/01/02 02:39:24;;;;;;;19.45;9.57;;;;;;;9.41;100.00;100757.53;5092916;28;20384;-74
2023/01/02 02:42:00;;;;;;;15.65;8.77;;;;;;;9.41;100.00;100754.69;5094282;28;20092;-73
2023/01/02 02:44:52;;;;;;;15.98;9.80;;;;;;;9.39;100.00;100758.03;5093661;28;20072;-73
2023/01/02 02:47:46;;;;;;;15.95;8.85;;;;;;;9.41;100.00;100768.94;5093031;28;20038;-73
2023/01/02 02:50:36;;;;;;;18.25;10.30;;;;;;;9.38;100.00;100762.13;5094986;28;20028;-74
2023/01/02 02:53:20;;;;;;;20.23;10.30;;;;;;;9.38;100.00;100762.13;5093435;28;20028;-75
2023/01/02 02:55:51;;;;;;;17.20;10.05;;;;;;;9.39;100.00;100755.19;5094804;28;20035;-73
2023/01/02 02:58:19;;;;;;;18.23;9.93;;;;;;;9.37;100.00;100757.69;5076754;28;20111;-73
2023/01/02 03:00:46;;;;;;;19.13;9.55;;;;;;;9.35;100.00;100756.59;5077009;28;20036;-74
2023/01/02 03:03:23;;;;;;;17.05;8.77;;;;;;;9.30;100.00;100752.28;5094879;28;20028;-73
2023/01/02 03:06:15;;;;;;;15.98;9.48;;;;;;;9.25;100.00;100750.06;5093993;28;20385;-73
2023/01/02 03:08:52;;;;;;;18.42;9.25;;;;;;;9.11;100.00;100727.88;5076348;28;20020;-73
2023/01/02 03:11:33;;;;;;;18.13;9.63;;;;;;;9.00;100.00;100724.69;5094810;28;20119;-73
2023/01/02 03:14:02;;;;;;;15.70;8.75;;;;;;;8.95;100.00;100720.41;5094758;28;20103;-74
2023/01/02 03:16:38;;;;;;;16.88;8.85;;;;;;;8.91;100.00;100728.31;5076414;28;20028;-73
2023/01/02 03:19:19;;;;;;;18.48;9.57;;;;;;;8.94;100.00;100723.72;5094491;28;20024;-73
2023/01/02 03:22:00;;;;;;;22.27;10.32;;;;;;;8.96;100.00;100726.88;5093450;28;20024;-74
2023/01/02 03:24:26;;;;;;;17.38;9.00;;;;;;;8.99;100.00;100732.47;5094492;28;20065;-74
2023/01/02 03:27:14;;;;;;;15.55;8.65;;;;;;;9.00;100.00;100736.09;5093205;28;20032;-73
2023/01/02 03:29:49;;;;;;;17.73;8.73;;;;;;;9.03;100.00;100726.59;5094146;28;20031;-75
2023/01/02 03:32:37;;;;;;;17.67;8.32;;;;;;;9.02;100.00;100731.50;5093131;28;20020;-73
2023/01/02 03:35:07;;;;;;;16.95;8.02;;;;;;;9.03;100.00;100738.78;5092694;28;20171;-75
2023/01/02 03:37:36;;;;;;;13.23;8.15;;;;;;;9.03;100.00;100724.53;5092604;28;20035;-73
2023/01/02 03:40:18;;;;;;;15.55;8.80;;;;;;;9.01;100.00;100729.13;5092843;28;20028;-74
2023/01/02 03:42:54;;;;;;;18.27;8.80;;;;;;;8.97;100.00;100728.47;5092570;28;20019;-74
2023/01/02 03:45:24;;;;;;;16.77;8.88;;;;;;;8.95;100.00;100722.47;5092923;28;20077;-73
2023/01/02 03:48:00;;;;;;;13.75;8.57;;;;;;;8.95;100.00;100714.72;5092771;28;20019;-74
2023/01/02 03:50:32;;;;;;;21.98;10.25;;;;;;;8.93;100.00;100703.00;5092721;28;20016;-74
2023/01/02 03:52:58;;;;;;;18.13;10.15;;;;;;;8.86;100.00;100711.81;5092630;28;20024;-74
2023/01/02 03:55:24;;;;;;;21.58;9.70;;;;;;;8.79;100.00;100707.25;5093078;28;20028;-75
2023/01/02 03:58:13;;;;;;;17.60;10.23;;;;;;;8.74;100.00;100712.75;5075880;28;20040;-74
2023/01/02 04:00:50;;;;;;;15.65;10.23;;;;;;;8.66;100.00;100708.59;5092792;28;20024;-73
2023/01/02 04:03:33;;;;;;;18.35;9.80;;;;;;;8.62;100.00;100705.09;5093120;28;20035;-73
2023/01/02 04:06:11;;;;;;;13.18;8.55;;;;;;;8.61;100.00;100712.06;5075879;28;20487;-73
2023/01/02 04:08:45;;;;;;;15.00;8.43;;;;;;;8.61;100.00;100704.31;5092739;28;20028;-73
2023/01/02 04:11:27;;;;;;;14.98;8.95;;;;;;;8.60;100.00;100702.75;5093678;28;20106;-72
2023/01/02 04:14:08;;;;;;;20.88;10.02;;;;;;;8.58;100.00;100693.88;5092357;28;20419;-72
2023/01/02 04:16:35;;;;;;;15.27;8.25;;;;;;;8.56;100.00;100704.94;5094628;28;20024;-73
2023/01/02 04:19:14;;;;;;;20.25;9.10;;;;;;;8.57;100.00;100700.81;5097666;28;20031;-74
2023/01/02 04:21:50;;;;;;;17.75;8.25;;;;;;;8.62;100.00;100694.50;5080082;28;20032;-73
2023/01/02 04:24:30;;;;;;;16.65;8.45;;;;;;;8.65;100.00;100692.78;5096470;28;20032;-73
2023/01/02 04:27:02;;;;;;;14.48;7.72;;;;;;;8.66;100.00;100686.59;5097732;28;20106;-74
2023/01/02 04:29:30;;;;;;;17.08;7.82;;;;;;;8.68;100.00;100686.13;5079798;28;20464;-74
2023/01/02 04:32:22;;;;;;;14.02;7.80;;;;;;;8.71;100.00;100680.28;5096221;28;20065;-73
2023/01/02 04:34:48;;;;;;;;;;;;;;;8.70;100.00;100681.56;5090708;28;20481;-74
2023/01/02 04:37:33;;;;;;;11.75;6.90;;;;;;;8.69;100.00;100677.13;5096368;28;19908;-75
2023/01/02 04:40:05;;;;;;;16.42;7.80;;;;;;;8.71;100.00;100663.19;5097182;28;20034;-73
2023/01/02 04:42:31;;;;;;;12.88;7.80;;;;;;;8.68;100.00;100661.28;5079584;28;20111;-74
2023/01/02 04:44:58;;;;;;;12.55;7.32;;;;;;;8.71;100.00;100671.75;5096789;28;20048;-74
2023/01/02 04:47:24;;;;;;;12.65;7.80;;;;;;;8.70;100.00;100658.00;5095989;28;20031;-73
2023/01/02 04:49:51;;;;;;;15.10;8.30;;;;;;;8.71;100.00;100668.09;5078918;28;20024;-74
2023/01/02 04:52:17;;;;;;;13.90;7.72;;;;;;;8.71;100.00;100666.03;5097118;28;20022;-73
2023/01/02 04:54:43;;;;;;;10.70;7.00;;;;;;;8.74;100.00;100662.28;5095905;28;20016;-74
2023/01/02 04:57:09;;;;;;;12.57;7.10;;;;;;;8.78;100.00;100662.09;5096519;28;20024;-73
2023/01/02 04:59:35;;;;;;;9.38;6.47;;;;;;;8.80;100.00;100663.22;5096855;28;20084;-73
2023/01/02 05:02:01;;;;;;;12.00;6.97;;;;;;;8.82;100.00;100663.53;5095741;28;20107;-74
2023/01/02 05:04:27;;;;;;;14.90;7.15;;;;;;;8.84;100.00;100663.06;5096847;28;20078;-73
2023/01/02 05:06:54;;;;;;;14.48;6.82;;;;;;;8.87;100.00;100667.03;5078703;28;20349;-73
2023/01/02 05:09:20;;;;;;;10.75;6.38;;;;;;;8.91;100.00;100662.75;5095598;28;20035;-73
2023/01/02 05:11:46;;;;;;;8.55;5.00;;;;;;;8.97;100.00;100660.06;5095591;28;20084;-73
2023/01/02 05:14:13;;;;;;;7.28;4.05;;;;;;;9.12;100.00;100663.88;5078542;28;20023;-73
2023/01/02 05:16:39;;;;;;;7.32;4.50;;;;;;;9.22;100.00;100654.06;5078381;28;20422;-73
2023/01/02 05:19:05;;;;;;;6.47;3.88;;;;;;;9.35;100.00;100654.69;5096779;28;20024;-75
2023/01/02 05:24:17;;;;;;;6.57;3.85;;;;;;;9.65;100.00;100658.63;5096766;28;20038;-74
2023/01/02 05:26:43;;;;;;;6.75;4.10;;;;;;;9.77;100.00;100657.69;5096354;28;20023;-74
2023/01/02 05:29:09;;;;;;;5.97;3.17;;;;;;;9.86;100.00;100663.38;5095458;28;20497;-74
2023/01/02 05:31:36;;;;;;;5.40;3.22;;;;;;;9.93;100.00;100654.50;5095333;28;20024;-74
2023/01/02 05:34:02;;;;;;;6.68;3.40;;;;;;;10.02;100.00;100656.53;5078113;28;20103;-73
2023/01/02 05:36:27;;;;;;;6.95;4.20;;;;;;;10.07;100.00;100650.97;5096211;28;20020;-73
2023/01/02 05:38:54;;;;;;;9.93;5.70;;;;;;;10.16;100.00;100655.84;5096268;28;20023;-74
2023/01/02 05:41:28;;;;;;;13.07;6.00;;;;;;;10.11;100.00;100651.56;5095076;28;20480;-74
2023/01/02 05:43:55;;;;;;;9.90;5.50;;;;;;;10.00;100.00;100653.34;5095849;28;20365;-73
2023/01/02 05:46:21;;;;;;;11.27;6.55;;;;;;;9.92;100.00;100652.13;5077731;28;20058;-74
2023/01/02 05:48:47;;;;;;;10.57;6.10;;;;;;;9.85;100.00;100641.03;5095954;28;20077;-74
2023/01/02 05:51:15;;;;;;;9.35;5.47;;;;;;;9.82;100.00;100647.69;5094737;28;20027;-74
2023/01/02 05:53:42;;;;;;;12.18;5.70;;;;;;;9.77;100.00;100654.06;5078243;28;20024;-73
2023/01/02 05:56:12;;;;;;;8.35;4.93;;;;;;;9.73;100.00;100644.88;5095768;28;20498;-78
2023/01/02 05:58:41;;;;;;;9.90;4.90;;;;;;;9.71;100.00;100639.59;5077829;28;20089;-78
2023/01/02 06:01:12;;;;;;;8.65;4.13;;;;;;;9.74;100.00;100641.53;5078234;28;20116;-78
2023/01/02 06:03:38;;;;;;;7.53;4.43;;;;;;;9.75;100.00;100634.53;5077601;28;20020;-76
2023/01/02 06:06:09;;;;;;;8.57;4.75;;;;;;;9.70;100.00;100629.44;5098568;28;20024;-77
2023/01/02 06:08:39;;;;;;;9.50;4.80;;;;;;;9.69;100.00;100640.06;5098147;28;20032;-74
2023/01/02 06:11:06;;;;;;;9.63;5.80;;;;;;;9.62;100.00;100631.06;5096562;28;20030;-73
2023/01/02 06:13:34;;;;;;;9.65;4.80;;;;;;;9.54;100.00;100624.13;5099110;28;20103;-72
2023/01/02 06:16:01;;;;;;;11.70;5.88;;;;;;;9.42;100.00;100622.22;5096839;28;20487;-72
2023/01/02 06:18:29;;;;;;;10.73;5.95;;;;;;;9.31;100.00;100613.34;5095739;28;20081;-74
2023/01/02 06:21:03;;;;;;;13.13;5.95;;;;;;;9.22;100.00;100614.94;5095642;28;20027;-73
2023/01/02 06:23:30;;;;;;;11.50;6.55;;;;;;;9.12;100.00;100621.13;5077033;28;20050;-73
2023/01/02 06:26:01;;;;;;;10.48;5.00;;;;;;;9.10;100.00;100627.28;5076047;28;20051;-73
2023/01/02 06:28:28;;;;;;;11.13;6.32;;;;;;;9.05;100.00;100625.06;5077160;28;20020;-75
2023/01/02 06:31:02;;;;;;;11.55;5.78;;;;;;;9.04;100.00;100622.72;5094250;28;20051;-79
2023/01/02 06:33:28;;;;;;;8.13;5.30;;;;;;;9.05;100.00;100625.06;5093623;28;20021;-80
2023/01/02 06:35:58;;;;;;;10.35;4.80;;;;;;;9.04;100.00;100609.25;5095080;28;20073;-79
2023/01/02 06:38:24;;;;;;;8.95;4.78;;;;;;;9.15;100.00;100620.19;5076388;28;20020;-77
2023/01/02 06:40:57;;;;;;;6.00;4.35;;;;;;;9.28;100.00;100620.81;5092892;28;20024;-77
2023/01/02 06:43:23;;;;;;;10.27;5.00;;;;;;;9.41;100.00;100618.56;5091709;28;20050;-78
2023/01/02 06:45:48;;;;;;;11.60;4.38;;;;;;;9.48;100.00;100621.09;5091269;28;20067;-79
2023/01/02 06:48:15;;;;;;;8.93;4.82;;;;;;;9.58;100.00;100619.03;5092963;28;20051;-76
2023/01/02 06:50:41;;;;;;;6.40;4.72;;;;;;;9.68;100.00;100612.03;5074575;28;20373;-77
2023/01/02 06:53:06;;;;;;;7.75;4.57;;;;;;;9.77;100.00;100609.19;5092725;28;20030;-77
2023/01/02 06:55:31;;;;;;;9.20;5.28;;;;;;;9.83;100.00;100607.28;5091122;28;20020;-78
2023/01/02 06:57:57;;;;;;;7.60;4.50;;;;;;;9.87;100.00;100607.88;5091555;28;20099;-78
2023/01/02 07:00:22;;;;;;;9.32;4.57;;;;;;;9.87;100.00;100596.47;5074949;28;20494;-79
2023/01/02 07:02:48;;;;;;;11.32;6.35;;;;;;;9.95;100.00;100602.63;5093348;28;20024;-77
2023/01/02 07:05:13;;;;;;;10.32;4.85;;;;;;;9.95;100.00;100602.63;5093220;28;20024;-78
2023/01/02 07:07:38;;;;;;;13.85;5.35;;;;;;;9.96;100.00;100596.44;5093511;28;20028;-78
2023/01/02 07:10:05;;;;;;;9.98;4.55;;;;;;;10.11;100.00;100602.25;5094591;28;20024;-78
2023/01/02 07:12:30;;;;;;;13.07;5.43;;;;;;;10.15;100.00;100600.00;5093698;28;20460;-78
2023/01/02 07:14:55;;;;;;;9.32;4.25;;;;;;;10.18;100.00;100606.81;5093262;28;20039;-77
2023/01/02 07:17:21;;;;;;;8.68;4.32;;;;;;;10.21;100.00;100602.97;5093468;28;20016;-78
2023/01/02 07:19:46;;;;;;;13.77;4.68;;;;;;;10.23;100.00;100609.81;5094605;28;20104;-78
2023/01/02 07:22:11;;;;;;;11.40;6.82;;;;;;;10.23;100.00;100620.44;5094282;28;20039;-78
2023/01/02 07:24:37;;;;;;;10.45;6.53;;;;;;;10.22;100.00;100616.00;5094117;28;20030;-78
2023/01/02 07:27:03;;;;;;;13.75;6.70;;;;;;;10.10;100.00;100601.44;5093593;28;20024;-77
2023/01/02 07:29:28;;;;;;;10.85;6.72;;;;;;;10.10;100.00;100623.50;5094258;28;20020;-78
2023/01/02 07:31:54;;;;;;;14.82;6.90;;;;;;;9.94;100.00;100612.47;5094556;28;20020;-79
2023/01/02 07:34:19;;;;;;;12.82;6.90;;;;;;;9.86;100.00;100605.50;5094460;28;20011;-78
2023/01/02 07:36:44;;;;;;;11.57;5.72;;;;;;;9.79;100.00;100617.28;5094447;28;20368;-78
2023/01/02 07:39:10;;;;;;;14.77;7.47;;;;;;;9.76;100.00;100619.00;5093844;28;20027;-80
2023/01/02 07:41:36;;;;;;;13.35;6.55;;;;;;;9.78;100.00;100615.69;5092516;28;20123;-79
2023/01/02 07:44:02;;;;;;;15.18;6.85;;;;;;;9.73;100.00;100616.34;5092671;28;20580;-79
2023/01/02 07:46:28;;;;;;;11.57;6.07;;;;;;;9.65;100.00;100612.97;5094292;28;20023;-77
2023/01/02 07:48:57;;;;;;;13.07;7.05;;;;;;;9.59;100.00;100612.81;5094087;28;20032;-78
2023/01/02 07:51:24;;;;;;;9.68;6.18;;;;;;;9.57;100.00;100615.38;5075682;28;20149;-77
2023/01/02 07:53:50;;;;;;;8.93;5.72;;;;;;;9.56;100.00;100604.44;5092061;28;20028;-78
2023/01/02 07:56:16;;;;;;;13.40;5.72;;;;;;;9.45;100.00;100593.53;5092480;28;20117;-77
2023/01/02 07:58:43;;;;;;;12.82;6.22;;;;;;;9.46;100.00;100595.13;5093825;28;20480;-77
2023/01/02 08:01:11;;;;;;;9.52;6.40;;;;;;;9.52;100.00;100606.69;5094158;28;20097;-78
2023/01/02 08:03:38;;;;;;;11.85;6.10;;;;;;;9.55;100.00;100611.41;5092680;28;20024;-77
2023/01/02 08:06:06;;;;;;;12.40;5.90;;;;;;;9.59;100.00;100615.69;5092874;28;20111;-79
2023/01/02 08:08:33;;;;;;;15.45;6.53;;;;;;;9.59;100.00;100629.19;5092783;28;20067;-78
2023/01/02 08:11:04;;;;;;;10.60;5.15;;;;;;;9.57;100.00;100617.44;5093307;28;20383;-77
2023/01/02 08:13:37;;;;;;;15.10;7.07;;;;;;;9.60;100.00;100634.38;5093075;28;20032;-76
2023/01/02 08:16:16;;;;;;;15.32;6.82;;;;;;;9.57;100.00;100631.72;5093872;28;20108;-79
2023/01/02 08:18:43;;;;;;;13.15;7.70;;;;;;;9.54;100.00;100624.13;5093089;28;20466;-79
2023/01/02 08:21:09;;;;;;;12.63;7.05;;;;;;;9.55;100.00;100635.03;5093797;28;20020;-78
2023/01/02 08:23:36;;;;;;;14.95;5.78;;;;;;;9.61;100.00;100640.88;5058870;28;20384;-78
2023/01/02 08:26:05;;;;;;;15.63;7.25;;;;;;;9.73;100.00;100633.47;5075471;28;20039;-79
2023/01/02 08:28:33;;;;;;;12.20;7.63;;;;;;;9.83;100.00;100635.81;5092118;28;20439;-78
2023/01/02 08:30:59;;;;;;;16.30;7.60;;;;;;;9.87;100.00;100619.31;5075191;28;20070;-78
2023/01/02 08:33:26;;;;;;;15.43;8.00;;;;;;;9.89;100.00;100613.13;5093073;28;20024;-77
2023/01/02 08:35:52;;;;;;;11.43;7.18;;;;;;;9.89;100.00;100605.31;5092254;28;20035;-78
2023/01/02 08:38:18;;;;;;;10.15;5.55;;;;;;;9.95;100.00;100611.19;5057517;28;20032;-77
2023/01/02 08:40:44;;;;;;;11.10;5.90;;;;;;;10.08;100.00;100612.56;5093241;28;20484;-78
2023/01/02 08:43:12;;;;;;;10.80;5.47;;;;;;;10.25;100.00;100601.53;5089034;28;20047;-78
2023/01/02 08:45:40;;;;;;;12.05;6.82;;;;;;;10.42;100.00;100596.22;5093502;28;20032;-80
2023/01/02 08:48:06;;;;;;;9.55;5.22;;;;;;;10.55;100.00;100585.34;5093245;28;20035;-80
2023/01/02 08:50:33;;;;;;;9.88;4.97;;;;;;;10.80;100.00;100589.78;5074972;28;20040;-82
2023/01/02 08:52:58;;;;;;;5.95;4.65;;;;;;;10.92;100.00;100592.38;5095005;28;20032;-85
2023/01/02 08:55:25;;;;;;;9.70;5.53;;;;;;;11.06;100.00;100604.34;5094793;28;20028;-82
2023/01/02 08:57:52;;;;;;;7.40;4.82;;;;;;;11.18;100.00;100618.41;5097950;28;20038;-81
2023/01/02 09:00:19;;;;;;;9.57;5.45;;;;;;;11.26;100.00;100613.09;5094417;28;20035;-83
2023/01/02 09:02:48;;;;;;;12.75;5.82;;;;;;;11.33;100.00;100602.06;5075220;28;20084;-82
2023/01/02 09:05:16;;;;;;;11.95;5.30;;;;;;;11.52;100.00;100611.25;5079105;28;20027;-80
2023/01/02 09:07:43;;;;;;;8.23;4.47;;;;;;;11.57;100.00;100598.31;5096736;28;20038;-82
2023/01/02 09:10:10;;;;;;;14.30;6.05;;;;;;;11.61;100.00;100601.81;5097243;28;20034;-80
2023/01/02 09:12:37;;;;;;;8.75;5.72;;;;;;;11.64;100.00;100598.72;5097123;28;20036;-81
2023/01/02 09:15:05;;;;;;;12.93;5.22;;;;;;;11.62;100.00;100603.34;5097560;28;20048;-85
2023/01/02 09:17:32;;;;;;;9.07;5.57;;;;;;;11.65;100.00;100602.38;5095842;28;20118;-84
2023/01/02 09:19:59;;;;;;;11.00;5.35;;;;;;;11.63;100.00;100604.94;5097327;28;20044;-84
2023/01/02 09:22:33;;;;;;;10.45;5.60;;;;;;;11.65;100.00;100590.94;5097410;28;20040;-81
2023/01/02 09:24:59;;;;;;;9.13;5.47;;;;;;;11.73;100.00;100592.91;5096760;28;20080;-82
2023/01/02 09:27:28;;;;;;;10.23;6.10;;;;;;;11.79;100.00;100588.06;5096871;28;20035;-81
2023/01/02 09:29:55;;;;;;;12.73;6.15;;;;;;;11.93;100.00;100592.19;5097053;28;20085;-82
2023/01/02 09:32:21;;;;;;;54.40;8.80;;;;;;;12.12;100.00;100587.03;5097053;28;20039;-83
2023/01/02 09:34:49;;;;;;;19.73;6.47;;;;;;;12.31;100.00;100579.78;5095198;28;20233;-80
2023/01/02 09:37:30;;;;;;;10.50;6.32;;;;;;;12.48;100.00;100577.19;5096912;28;20046;-82
2023/01/02 09:39:55;;;;;;;12.65;6.00;;;;;;;12.59;100.00;100574.47;5096531;28;20035;-82
2023/01/02 09:42:30;;;;;;;12.52;6.05;;;;;;;12.65;100.00;100570.38;5096678;28;20028;-84
2023/01/02 09:45:02;;;;;;;9.00;5.15;;;;;;;12.70;100.00;100580.38;5094876;28;20051;-82
2023/01/02 09:47:29;;;;;;;8.27;4.80;;;;;;;12.69;100.00;100588.19;5078597;28;20449;-83
2023/01/02 09:50:09;;;;;;;11.30;6.00;;;;;;;12.63;100.00;100581.56;5095195;28;20027;-82
2023/01/02 09:52:41;;;;;;;15.07;6.18;;;;;;;12.67;100.00;100587.88;5095637;28;20102;-82
2023/01/02 09:55:34;;;;;;;14.30;5.50;;;;;;;12.72;100.00;100583.50;5078515;28;20027;-83
2023/01/02 09:58:10;;;;;;;10.20;4.72;;;;;;;12.80;100.00;100575.28;5078324;28;20028;-83
2023/01/02 10:00:37;;;;;;;11.15;5.97;;;;;;;12.87;100.00;100566.22;5092494;28;20540;-82
2023/01/02 10:03:28;;;;;;;10.43;5.70;;;;;;;12.89;100.00;100592.34;5094603;28;20048;-82
2023/01/02 10:06:20;;;;;;;14.20;5.57;;;;;;;12.88;100.00;100594.41;5095453;28;20031;-85
2023/01/02 10:09:04;;;;;;;16.45;5.45;;;;;;;12.97;100.00;100593.47;5094736;28;20028;-87
2023/01/02 10:12:00;;;;;;;15.70;5.75;;;;;;;13.01;100.00;100596.91;5094818;28;20489;-82
2023/01/02 10:14:44;;;;;;;16.73;6.13;;;;;;;13.09;100.00;100609.56;5100289;28;20519;-81
2023/01/02 10:17:14;;;;;;;15.90;5.72;;;;;;;13.15;100.00;100598.91;5106953;28;20047;-81
2023/01/02 10:20:14;;;;;;;15.60;5.45;;;;;;;13.30;100.00;100596.75;5093813;28;20131;-79
2023/01/02 10:23:02;;;;;;;25.42;6.25;;;;;;;13.42;100.00;100591.91;5112357;28;20039;-81
2023/01/02 10:25:47;;;;;;;13.35;4.60;;;;;;;13.40;100.00;100592.41;5110619;28;20062;-81
2023/01/02 10:28:49;;;;;;;9.38;4.43;;;;;;;13.36;100.00;100600.47;5101908;28;20463;-79
2023/01/02 10:31:34;;;;;;;10.30;4.20;;;;;;;13.42;100.00;100603.41;5082463;28;20035;-79
2023/01/02 10:34:01;;;;;;;7.88;3.83;;;;;;;13.38;100.00;100594.22;5095114;28;20161;-78
2023/01/02 10:36:38;;;;;;;7.47;3.30;;;;;;;13.31;100.00;100598.31;5093071;28;20483;-76
2023/01/02 10:39:07;;;;;;;8.25;4.70;;;;;;;13.32;100.00;100597.03;5094402;28;20036;-80
2023/01/02 10:41:35;;;;;;;7.72;4.32;;;;;;;13.48;100.00;100607.13;5076499;28;20036;-81
2023/01/02 10:44:09;;;;;;;6.95;3.58;;;;;;;13.54;100.00;100600.16;5076533;28;20040;-80
2023/01/02 10:46:36;;;;;;;12.57;3.55;;;;;;;13.74;100.00;100599.31;5076351;28;20028;-81
2023/01/02 10:49:08;;;;;;;9.95;3.47;;;;;;;13.80;100.00;100599.34;5093551;28;20046;-80
2023/01/02 10:51:35;;;;;;;12.25;3.42;;;;;;;13.80;100.00;100600.16;5092904;28;20047;-80
2023/01/02 10:54:06;;;;;;;9.82;3.70;;;;;;;13.86;100.00;100605.94;5093634;28;20094;-81
2023/01/02 10:56:37;;;;;;;8.38;4.25;;;;;;;14.03;100.00;100614.72;5092630;28;20097;-82
2023/01/02 10:59:27;;;;;;;5.82;3.35;;;;;;;14.14;100.00;100618.47;5093734;28;20016;-80
2023/01/02 11:01:55;;;;;;;10.38;4.22;;;;;;;14.24;100.00;100608.34;5095029;28;20036;-80
2023/01/02 11:04:26;;;;;;;10.70;4.10;;;;;;;14.35;100.00;100605.56;5095367;28;20016;-83
2023/01/02 11:07:03;;;;;;;7.07;3.08;;;;;;;14.49;100.00;100598.06;5092689;28;20064;-81
2023/01/02 11:09:32;;;;;;;8.98;3.65;;;;;;;14.58;100.00;100586.38;5094613;28;20097;-81
2023/01/02 11:12:06;;;;;;;9.27;3.95;;;;;;;14.82;100.00;100594.66;5093254;28;20499;-80
2023/01/02 11:14:34;;;;;;;8.55;3.67;;;;;;;14.91;100.00;100590.75;5092807;28;20077;-80
2023/01/02 11:17:20;;;;;;;11.13;5.10;;;;;;;14.96;100.00;100595.75;5094241;28;20338;-80
2023/01/02 11:19:52;;;;;;;8.57;4.40;;;;;;;14.94;100.00;100595.47;5090385;28;20040;-80
2023/01/02 11:22:20;;;;;;;11.40;4.13;;;;;;;14.93;100.00;100577.41;5074762;28;20093;-80
2023/01/02 11:25:04;;;;;;;5.90;3.70;;;;;;;14.83;100.00;100570.28;5092666;28;20450;-79
2023/01/02 11:27:32;;;;;;;7.07;3.88;;;;;;;14.80;100.00;100582.84;5092384;28;20055;-81
2023/01/02 11:29:58;;;;;;;5.75;4.03;;;;;;;14.67;100.00;100559.53;5093877;28;20437;-81
2023/01/02 11:32:37;;;;;;;11.13;4.68;;;;;;;14.59;100.00;100532.53;5094205;28;20115;-81
2023/01/02 11:35:04;;;;;;;9.18;4.90;;;;;;;14.45;100.00;100540.00;5092704;28;20423;-80